Time;durP1;ratioP1;P1;durP2;ratioP2;P2;SDS_P1;SDS_P2;PMS_P1;PMS_P2;Temp;Humidity;BMP_temperature;BMP_pressure;BME280_temperature;BME280_humidity;BME280_pressure;Samples;Min_cycle;Max_cycle;Signal;HPM_P1;HPM_P2
2022/03/04 00:01:08;;;;;;;14.10;8.47;;;;;;;;;;4942099;28;20256;-76
2022/03/04 00:03:35;;;;;;;11.95;8.55;;;;;;;;;;4888998;28;20577;-76
2022/03/04 00:09:14;;;;;;;16.52;9.65;;;;;;;;;;5193375;27;20469;-78
2022/03/04 00:11:40;;;;;;;20.25;9.48;;;;;;;;;;5188003;27;20176;-79
2022/03/04 00:14:06;;;;;;;12.43;9.48;;;;;;;;;;5191733;27;20228;-77
2022/03/04 00:16:32;;;;;;;16.27;10.23;;;;;;;;;;5143773;27;20246;-77
2022/03/04 00:19:16;;;;;;;15.63;9.73;;;;;;;;;;5094276;28;20462;-76
2022/03/04 00:21:51;;;;;;;16.60;9.65;;;;;;;;;;5047671;28;20193;-77
2022/03/04 00:24:18;;;;;;;15.10;10.98;;;;;;;;;;4921321;28;20222;-77
2022/03/04 00:26:44;;;;;;;16.40;9.75;;;;;;;;;;4780251;29;20215;-76
2022/03/04 00:29:11;;;;;;;18.17;10.93;;;;;;;;;;4732852;29;20937;-79
2022/03/04 00:33:13;;;;;;;18.50;10.90;;;;;;;;;;5193446;27;20473;-78
2022/03/04 00:35:39;;;;;;;14.80;9.32;;;;;;;;;;5183733;27;20209;-80
2022/03/04 00:38:05;;;;;;;15.43;9.35;;;;;;;;;;5171086;27;20186;-76
2022/03/04 00:40:31;;;;;;;15.20;10.55;;;;;;;;;;5170815;27;20189;-77
2022/03/04 00:42:57;;;;;;;21.38;11.20;;;;;;;;;;5099942;28;20211;-79
2022/03/04 00:45:23;;;;;;;15.23;9.80;;;;;;;;;;5045980;28;20307;-78
2022/03/04 00:47:49;;;;;;;15.10;10.83;;;;;;;;;;5060452;28;20519;-77
2022/03/04 00:50:15;;;;;;;16.60;9.75;;;;;;;;;;4942965;28;20440;-77
2022/03/04 00:52:41;;;;;;;17.17;9.57;;;;;;;;;;4857691;29;20226;-76
2022/03/04 00:57:39;;;;;;;15.93;10.25;;;;;;;;;;5193209;27;20306;-79
2022/03/04 01:00:05;;;;;;;18.88;10.65;;;;;;;;;;5187664;27;20184;-76
2022/03/04 01:02:32;;;;;;;17.20;10.63;;;;;;;;;;5192184;27;20211;-77
2022/03/04 01:04:57;;;;;;;17.58;10.95;;;;;;;;;;5187081;27;20186;-78
2022/03/04 01:07:23;;;;;;;16.77;10.30;;;;;;;;;;5098295;27;20296;-76
2022/03/04 01:09:49;;;;;;;16.77;10.90;;;;;;;;;;5054370;28;20464;-75
2022/03/04 01:12:15;;;;;;;16.70;10.07;;;;;;;;;;5072678;28;20430;-78
2022/03/04 01:14:41;;;;;;;17.88;11.52;;;;;;;;;;5061083;28;20203;-75
2022/03/04 01:17:07;;;;;;;16.90;10.50;;;;;;;;;;5052963;28;20213;-77
2022/03/04 01:22:10;;;;;;;17.15;11.00;;;;;;;;;;5193108;27;20479;-77
2022/03/04 01:24:36;;;;;;;15.38;10.60;;;;;;;;;;5168615;27;20556;-75
2022/03/04 01:27:02;;;;;;;16.67;10.60;;;;;;;;;;5156242;27;20221;-76
2022/03/04 01:29:28;;;;;;;19.23;11.10;;;;;;;;;;5150381;27;20427;-77
2022/03/04 01:31:54;;;;;;;22.20;10.68;;;;;;;;;;5115577;27;20276;-74
2022/03/04 01:34:20;;;;;;;15.13;10.23;;;;;;;;;;5042179;28;20277;-75
2022/03/04 01:36:46;;;;;;;19.98;11.20;;;;;;;;;;4992744;28;20453;-77
2022/03/04 01:39:12;;;;;;;17.88;10.20;;;;;;;;;;4952065;28;20201;-76
2022/03/04 01:41:38;;;;;;;16.95;9.98;;;;;;;;;;4859837;29;20233;-78
2022/03/04 01:46:11;;;;;;;18.48;10.13;;;;;;;;;;5185064;27;21017;-77
2022/03/04 01:48:38;;;;;;;17.02;10.05;;;;;;;;;;5165720;27;20192;-75
2022/03/04 01:51:04;;;;;;;15.27;10.85;;;;;;;;;;5176971;27;20238;-75
2022/03/04 01:53:30;;;;;;;16.00;10.57;;;;;;;;;;5191509;27;20209;-77
2022/03/04 01:55:56;;;;;;;21.07;11.00;;;;;;;;;;5135423;27;20752;-76
2022/03/04 01:58:22;;;;;;;17.40;10.20;;;;;;;;;;5116518;27;20524;-77
2022/03/04 02:00:47;;;;;;;18.63;10.45;;;;;;;;;;5102167;28;20444;-78
2022/03/04 02:03:13;;;;;;;18.17;10.73;;;;;;;;;;4976155;28;20272;-75
2022/03/04 02:05:39;;;;;;;16.85;10.10;;;;;;;;;;4859439;29;20223;-76
2022/03/04 02:10:46;;;;;;;20.20;11.43;;;;;;;;;;5192725;27;20843;-78
2022/03/04 02:13:14;;;;;;;21.05;11.88;;;;;;;;;;5187723;27;20185;-78
2022/03/04 02:15:42;;;;;;;17.00;11.15;;;;;;;;;;5187824;27;20200;-78
2022/03/04 02:18:12;;;;;;;18.17;11.70;;;;;;;;;;5170449;27;20187;-77
2022/03/04 02:20:39;;;;;;;17.63;10.55;;;;;;;;;;5160698;27;20211;-79
2022/03/04 02:23:05;;;;;;;16.38;10.98;;;;;;;;;;5165006;27;20193;-78
2022/03/04 02:25:31;;;;;;;16.75;10.88;;;;;;;;;;5053875;28;20227;-76
2022/03/04 02:27:57;;;;;;;20.33;11.03;;;;;;;;;;4944279;28;20235;-78
2022/03/04 02:30:23;;;;;;;20.77;12.07;;;;;;;;;;4948447;28;20482;-78
2022/03/04 02:35:22;;;;;;;17.50;10.95;;;;;;;;;;5191257;27;20298;-78
2022/03/04 02:37:48;;;;;;;18.77;11.25;;;;;;;;;;5187880;27;20199;-79
2022/03/04 02:40:14;;;;;;;19.90;11.90;;;;;;;;;;5192174;27;20203;-78
2022/03/04 02:42:40;;;;;;;17.25;10.63;;;;;;;;;;5176718;27;20582;-79
2022/03/04 02:45:06;;;;;;;22.30;12.60;;;;;;;;;;5138408;27;20201;-78
2022/03/04 02:47:32;;;;;;;21.33;12.23;;;;;;;;;;5142605;27;20209;-78
2022/03/04 02:49:58;;;;;;;20.45;12.02;;;;;;;;;;5046029;28;20215;-77
2022/03/04 02:52:24;;;;;;;21.67;12.20;;;;;;;;;;4933670;28;20579;-78
2022/03/04 02:54:50;;;;;;;18.05;11.95;;;;;;;;;;4852130;29;20482;-77
2022/03/04 02:59:50;;;;;;;27.17;13.50;;;;;;;;;;5193121;27;20781;-78
2022/03/04 03:02:16;;;;;;;21.00;12.90;;;;;;;;;;5168598;27;20201;-76
2022/03/04 03:04:42;;;;;;;19.40;12.10;;;;;;;;;;5172388;27;20267;-75
2022/03/04 03:07:08;;;;;;;21.13;12.50;;;;;;;;;;5174347;27;20450;-76
2022/03/04 03:09:34;;;;;;;18.15;11.70;;;;;;;;;;5127457;27;20483;-77
2022/03/04 03:12:00;;;;;;;23.02;12.68;;;;;;;;;;5099389;28;20183;-78
2022/03/04 03:14:26;;;;;;;19.75;11.95;;;;;;;;;;5082072;28;20196;-77
2022/03/04 03:16:52;;;;;;;17.75;11.95;;;;;;;;;;5030976;28;20212;-77
2022/03/04 03:19:18;;;;;;;21.53;11.80;;;;;;;;;;4971764;28;20230;-76
2022/03/04 03:24:01;;;;;;;22.80;12.32;;;;;;;;;;5151176;27;20486;-75
2022/03/04 03:26:27;;;;;;;20.90;11.38;;;;;;;;;;5116006;28;20675;-79
2022/03/04 03:28:53;;;;;;;17.20;12.20;;;;;;;;;;5129631;28;20187;-77
2022/03/04 03:31:19;;;;;;;21.40;12.40;;;;;;;;;;5124865;28;20222;-77
2022/03/04 03:33:45;;;;;;;23.98;12.35;;;;;;;;;;5020002;28;20197;-77
2022/03/04 03:36:12;;;;;;;19.45;11.40;;;;;;;;;;4978724;28;20270;-78
2022/03/04 03:38:38;;;;;;;17.58;11.60;;;;;;;;;;4992563;28;20600;-76
2022/03/04 03:41:04;;;;;;;22.27;12.60;;;;;;;;;;4942823;28;20200;-78
2022/03/04 03:43:30;;;;;;;21.23;13.10;;;;;;;;;;4850333;29;20564;-77
2022/03/04 03:48:30;;;;;;;29.45;12.18;;;;;;;;;;5193321;27;20343;-76
2022/03/04 03:50:56;;;;;;;21.70;12.38;;;;;;;;;;5168480;27;20185;-77
2022/03/04 03:53:22;;;;;;;23.73;12.87;;;;;;;;;;5169774;27;20268;-78
2022/03/04 03:55:48;;;;;;;24.63;13.13;;;;;;;;;;5165149;27;20440;-78
2022/03/04 03:58:17;;;;;;;27.80;13.43;;;;;;;;;;5105661;28;20660;-77
2022/03/04 04:00:43;;;;;;;20.52;12.00;;;;;;;;;;5099826;27;20512;-78
2022/03/04 04:03:09;;;;;;;20.35;13.15;;;;;;;;;;5101137;28;20191;-76
2022/03/04 04:05:36;;;;;;;23.23;13.43;;;;;;;;;;5100085;28;20301;-76
2022/03/04 04:08:02;;;;;;;20.80;12.40;;;;;;;;;;5074143;28;20527;-75
2022/03/04 04:13:07;;;;;;;23.17;13.35;;;;;;;;;;5193038;27;20504;-77
2022/03/04 04:15:33;;;;;;;18.45;11.73;;;;;;;;;;5184304;27;20199;-76
2022/03/04 04:17:59;;;;;;;20.13;12.25;;;;;;;;;;5171025;27;20195;-78
2022/03/04 04:20:25;;;;;;;18.63;12.30;;;;;;;;;;5144448;27;20178;-79
2022/03/04 04:22:51;;;;;;;22.40;12.47;;;;;;;;;;5106916;28;20193;-76
2022/03/04 04:25:17;;;;;;;20.83;12.40;;;;;;;;;;5103802;28;20438;-78
2022/03/04 04:27:43;;;;;;;20.17;11.90;;;;;;;;;;5102684;28;20826;-77
2022/03/04 04:30:09;;;;;;;16.70;11.80;;;;;;;;;;4972565;28;20487;-78
2022/03/04 04:32:35;;;;;;;21.70;13.07;;;;;;;;;;4966744;28;20267;-78
2022/03/04 04:37:33;;;;;;;21.02;12.10;;;;;;;;;;5172473;27;20309;-78
2022/03/04 04:39:59;;;;;;;19.10;11.37;;;;;;;;;;5170407;27;20186;-76
2022/03/04 04:42:25;;;;;;;17.90;11.55;;;;;;;;;;5192054;27;20928;-75
2022/03/04 04:44:52;;;;;;;21.75;11.75;;;;;;;;;;5191656;27;20193;-76
2022/03/04 04:47:18;;;;;;;22.10;12.75;;;;;;;;;;5111575;27;20216;-77
2022/03/04 04:49:44;;;;;;;20.55;12.32;;;;;;;;;;5028770;28;20285;-77
2022/03/04 04:52:10;;;;;;;20.88;11.13;;;;;;;;;;5003113;28;20206;-76
2022/03/04 04:54:36;;;;;;;20.63;13.05;;;;;;;;;;4908919;28;20537;-76
2022/03/04 04:57:03;;;;;;;20.63;12.75;;;;;;;;;;4774763;29;20241;-78
2022/03/04 05:02:06;;;;;;;25.70;12.25;;;;;;;;;;5192482;27;20507;-77
2022/03/04 05:04:32;;;;;;;22.08;13.10;;;;;;;;;;5187385;27;20192;-76
2022/03/04 05:06:58;;;;;;;22.45;13.23;;;;;;;;;;5156535;27;20210;-76
2022/03/04 05:09:24;;;;;;;19.95;12.40;;;;;;;;;;5170631;27;20189;-77
2022/03/04 05:11:50;;;;;;;22.73;12.27;;;;;;;;;;5145480;27;20222;-75
2022/03/04 05:14:16;;;;;;;21.37;12.97;;;;;;;;;;5138571;27;20647;-79
2022/03/04 05:16:42;;;;;;;22.08;13.48;;;;;;;;;;5144878;27;20450;-76
2022/03/04 05:19:08;;;;;;;25.65;13.48;;;;;;;;;;5143361;27;20189;-79
2022/03/04 05:21:34;;;;;;;20.37;12.90;;;;;;;;;;5085279;27;20221;-76
2022/03/04 05:26:38;;;;;;;22.02;13.90;;;;;;;;;;5180475;27;20509;-75
2022/03/04 05:29:04;;;;;;;24.70;14.23;;;;;;;;;;5187637;27;20185;-77
2022/03/04 05:31:30;;;;;;;25.75;14.07;;;;;;;;;;5192159;27;20255;-75
2022/03/04 05:33:57;;;;;;;26.17;13.07;;;;;;;;;;5191440;27;20181;-76
2022/03/04 05:36:23;;;;;;;25.92;13.18;;;;;;;;;;5173714;27;20229;-76
2022/03/04 05:38:50;;;;;;;21.88;14.13;;;;;;;;;;5132573;27;20646;-77
2022/03/04 05:41:17;;;;;;;21.27;13.55;;;;;;;;;;5108536;28;20640;-77
2022/03/04 05:43:43;;;;;;;24.80;13.52;;;;;;;;;;5036575;28;20224;-78
2022/03/04 05:46:09;;;;;;;24.55;15.45;;;;;;;;;;4967826;28;20317;-75
2022/03/04 05:51:03;;;;;;;23.25;14.27;;;;;;;;;;5193121;27;20627;-76
2022/03/04 05:53:30;;;;;;;25.92;15.25;;;;;;;;;;5187753;27;20187;-75
2022/03/04 05:55:56;;;;;;;29.73;14.82;;;;;;;;;;5185439;27;20637;-75
2022/03/04 05:58:22;;;;;;;24.77;14.70;;;;;;;;;;5150480;27;20197;-76
2022/03/04 06:00:48;;;;;;;26.92;15.45;;;;;;;;;;5107074;28;20627;-76
2022/03/04 06:03:14;;;;;;;20.80;12.90;;;;;;;;;;5047144;28;20227;-77
2022/03/04 06:05:40;;;;;;;27.52;15.07;;;;;;;;;;5028769;28;20221;-75
2022/03/04 06:08:06;;;;;;;22.67;14.25;;;;;;;;;;5003694;28;20204;-76
2022/03/04 06:10:32;;;;;;;26.85;15.55;;;;;;;;;;4975759;28;20226;-78
2022/03/04 06:14:59;;;;;;;24.88;14.93;;;;;;;;;;5192892;27;20488;-77
2022/03/04 06:17:25;;;;;;;25.08;14.02;;;;;;;;;;5168411;27;20205;-77
2022/03/04 06:19:51;;;;;;;27.97;15.37;;;;;;;;;;5171141;27;20193;-76
2022/03/04 06:22:18;;;;;;;22.10;13.60;;;;;;;;;;5159699;27;20857;-74
2022/03/04 06:24:44;;;;;;;31.60;14.93;;;;;;;;;;5076777;28;20192;-78
2022/03/04 06:27:10;;;;;;;26.60;13.93;;;;;;;;;;5099554;28;20268;-77
2022/03/04 06:29:36;;;;;;;28.83;15.40;;;;;;;;;;5104279;28;20191;-76
2022/03/04 06:32:02;;;;;;;24.37;13.97;;;;;;;;;;5081006;28;20634;-76
2022/03/04 06:34:29;;;;;;;25.90;15.00;;;;;;;;;;4970067;28;21012;-78
2022/03/04 06:39:40;;;;;;;29.17;13.82;;;;;;;;;;5193126;27;20476;-77
2022/03/04 06:42:06;;;;;;;27.98;14.50;;;;;;;;;;5187782;27;20191;-77
2022/03/04 06:44:32;;;;;;;22.15;13.77;;;;;;;;;;5192710;27;20246;-75
2022/03/04 06:46:58;;;;;;;27.63;14.52;;;;;;;;;;5171693;27;20212;-77
2022/03/04 06:49:24;;;;;;;28.30;15.55;;;;;;;;;;5094801;28;20561;-78
2022/03/04 06:51:50;;;;;;;22.38;13.25;;;;;;;;;;5053036;28;20205;-78
2022/03/04 06:54:16;;;;;;;33.17;15.80;;;;;;;;;;5006647;28;20201;-78
2022/03/04 06:56:42;;;;;;;27.63;15.10;;;;;;;;;;5022077;28;20483;-78
2022/03/04 06:59:08;;;;;;;34.63;16.50;;;;;;;;;;5013733;28;20487;-76
2022/03/04 07:04:14;;;;;;;36.55;15.18;;;;;;;;;;5192490;27;20484;-78
2022/03/04 07:06:40;;;;;;;27.75;15.40;;;;;;;;;;5138388;27;20558;-78
2022/03/04 07:09:07;;;;;;;30.83;16.90;;;;;;;;;;5170760;27;20197;-78
2022/03/04 07:11:33;;;;;;;27.38;16.67;;;;;;;;;;5170216;27;20820;-77
2022/03/04 07:13:59;;;;;;;27.65;16.08;;;;;;;;;;5145454;27;20196;-78
2022/03/04 07:16:25;;;;;;;29.53;17.10;;;;;;;;;;5113171;28;20222;-79
2022/03/04 07:18:51;;;;;;;32.88;17.92;;;;;;;;;;5134449;27;20824;-78
2022/03/04 07:21:17;;;;;;;32.73;18.77;;;;;;;;;;5119799;27;20190;-79
2022/03/04 07:23:42;;;;;;;28.73;18.07;;;;;;;;;;5074557;28;20488;-76
2022/03/04 07:28:46;;;;;;;31.38;17.73;;;;;;;;;;5192700;27;20480;-78
2022/03/04 07:31:12;;;;;;;26.20;16.53;;;;;;;;;;5168245;27;20199;-77
2022/03/04 07:33:38;;;;;;;32.17;17.43;;;;;;;;;;5172367;27;20429;-75
2022/03/04 07:36:05;;;;;;;30.33;18.83;;;;;;;;;;5183425;27;20457;-79
2022/03/04 07:38:31;;;;;;;24.42;15.93;;;;;;;;;;5110252;28;20225;-78
2022/03/04 07:40:58;;;;;;;29.02;17.67;;;;;;;;;;5120809;27;20208;-77
2022/03/04 07:43:24;;;;;;;31.95;18.52;;;;;;;;;;5132789;27;20191;-76
2022/03/04 07:45:50;;;;;;;32.53;18.25;;;;;;;;;;5062871;28;20211;-78
2022/03/04 07:48:16;;;;;;;27.05;18.17;;;;;;;;;;5041639;28;20344;-77
2022/03/04 07:53:20;;;;;;;23.30;16.42;;;;;;;;;;5192720;27;20849;-77
2022/03/04 07:55:46;;;;;;;29.75;17.15;;;;;;;;;;5182270;27;20536;-78
2022/03/04 07:58:12;;;;;;;26.30;16.15;;;;;;;;;;5170920;27;20279;-76
2022/03/04 08:00:38;;;;;;;31.73;16.98;;;;;;;;;;5156102;27;20258;-78
2022/03/04 08:03:04;;;;;;;27.63;16.63;;;;;;;;;;5099813;28;20555;-77
2022/03/04 08:05:30;;;;;;;22.90;15.50;;;;;;;;;;5034392;28;20206;-78
2022/03/04 08:07:56;;;;;;;28.17;16.77;;;;;;;;;;4948381;28;20435;-79
2022/03/04 08:10:22;;;;;;;25.27;15.02;;;;;;;;;;4935708;28;20686;-79
2022/03/04 08:12:48;;;;;;;27.92;17.25;;;;;;;;;;4889025;29;20266;-79
2022/03/04 08:17:53;;;;;;;24.90;16.25;;;;;;;;;;5192739;27;20820;-78
2022/03/04 08:20:21;;;;;;;23.67;15.52;;;;;;;;;;5168473;27;20241;-79
2022/03/04 08:22:47;;;;;;;27.90;16.85;;;;;;;;;;5192062;27;20275;-78
2022/03/04 08:25:13;;;;;;;30.10;16.63;;;;;;;;;;5190889;27;20653;-77
2022/03/04 08:27:39;;;;;;;27.95;16.83;;;;;;;;;;5161192;27;20811;-79
2022/03/04 08:30:06;;;;;;;27.88;15.63;;;;;;;;;;5163729;27;20188;-77
2022/03/04 08:32:32;;;;;;;32.30;18.10;;;;;;;;;;5165512;27;20585;-79
2022/03/04 08:34:59;;;;;;;25.83;15.20;;;;;;;;;;5082796;28;20189;-76
2022/03/04 08:37:25;;;;;;;30.45;17.10;;;;;;;;;;5041864;28;20481;-77
2022/03/04 08:42:28;;;;;;;26.83;17.20;;;;;;;;;;5193153;27;20492;-76
2022/03/04 08:44:54;;;;;;;27.02;17.58;;;;;;;;;;5187113;27;20271;-78
2022/03/04 08:47:21;;;;;;;27.37;15.73;;;;;;;;;;5153686;27;20313;-76
2022/03/04 08:49:47;;;;;;;26.98;17.05;;;;;;;;;;5168214;27;20420;-78
2022/03/04 08:52:13;;;;;;;27.35;17.58;;;;;;;;;;5063394;28;20273;-76
2022/03/04 08:54:39;;;;;;;25.77;17.05;;;;;;;;;;5048552;28;20716;-77
2022/03/04 08:57:05;;;;;;;31.13;17.30;;;;;;;;;;5038866;28;20296;-76
2022/03/04 08:59:31;;;;;;;28.55;18.73;;;;;;;;;;4895323;29;20195;-78
2022/03/04 09:01:57;;;;;;;25.95;17.35;;;;;;;;;;4762108;29;20239;-76
2022/03/04 09:07:25;;;;;;;26.60;16.05;;;;;;;;;;5173789;27;20497;-79
2022/03/04 09:09:51;;;;;;;29.48;17.38;;;;;;;;;;5157660;27;20198;-78
2022/03/04 09:12:18;;;;;;;29.73;18.63;;;;;;;;;;5165350;27;20193;-78
2022/03/04 09:14:44;;;;;;;32.95;18.15;;;;;;;;;;5173432;27;20540;-78
2022/03/04 09:17:10;;;;;;;28.23;17.42;;;;;;;;;;5160414;27;20209;-78
2022/03/04 09:19:36;;;;;;;35.37;18.97;;;;;;;;;;5161640;27;20199;-78
2022/03/04 09:22:03;;;;;;;33.63;18.48;;;;;;;;;;5091974;27;20441;-77
2022/03/04 09:24:29;;;;;;;27.85;18.52;;;;;;;;;;5075474;28;20477;-77
2022/03/04 09:26:55;;;;;;;28.63;19.65;;;;;;;;;;4971090;28;20691;-77
2022/03/04 09:32:01;;;;;;;31.20;19.02;;;;;;;;;;5183801;27;20467;-79
2022/03/04 09:34:27;;;;;;;29.63;20.57;;;;;;;;;;5183819;27;20188;-76
2022/03/04 09:36:53;;;;;;;31.90;21.20;;;;;;;;;;5158934;27;20440;-77
2022/03/04 09:39:19;;;;;;;32.10;21.33;;;;;;;;;;5157077;27;20914;-80
2022/03/04 09:41:46;;;;;;;32.90;22.77;;;;;;;;;;5101998;27;20463;-79
2022/03/04 09:44:12;;;;;;;31.83;21.90;;;;;;;;;;5069173;28;20926;-78
2022/03/04 09:46:41;;;;;;;31.37;22.87;;;;;;;;;;5064245;28;20490;-78
2022/03/04 09:49:07;;;;;;;31.33;21.73;;;;;;;;;;5036778;28;20401;-77
2022/03/04 09:51:33;;;;;;;30.03;21.50;;;;;;;;;;4989928;28;20478;-76
2022/03/04 09:56:27;;;;;;;36.60;24.03;;;;;;;;;;5130983;27;20497;-76
2022/03/04 09:58:53;;;;;;;31.50;21.97;;;;;;;;;;5116413;27;20764;-79
2022/03/04 10:01:19;;;;;;;26.20;20.03;;;;;;;;;;5135554;27;20453;-74
2022/03/04 10:03:47;;;;;;;31.33;22.17;;;;;;;;;;5112652;27;20430;-77
2022/03/04 10:06:13;;;;;;;31.67;21.57;;;;;;;;;;5079682;28;20826;-75
2022/03/04 10:08:40;;;;;;;31.03;22.57;;;;;;;;;;5028473;28;20397;-76
2022/03/04 10:11:06;;;;;;;29.60;23.60;;;;;;;;;;4939531;28;20446;-77
2022/03/04 10:13:49;;;;;;;29.33;22.90;;;;;;;;;;4942344;28;20436;-78
2022/03/04 10:16:26;;;;;;;37.67;23.43;;;;;;;;;;4756520;29;20812;-78
2022/03/04 10:20:43;;;;;;;27.07;20.60;;;;;;;;;;5192812;27;20470;-77
2022/03/04 10:23:10;;;;;;;36.23;21.63;;;;;;;;;;5187635;27;20421;-78
2022/03/04 10:25:36;;;;;;;29.87;23.67;;;;;;;;;;5165424;27;20435;-79
2022/03/04 10:28:09;;;;;;;35.40;23.57;;;;;;;;;;5144040;27;20740;-76
2022/03/04 10:30:35;;;;;;;29.67;22.77;;;;;;;;;;5105616;27;20436;-80
2022/03/04 10:33:08;;;;;;;29.00;21.67;;;;;;;;;;5064573;28;20398;-77
2022/03/04 10:35:35;;;;;;;31.37;24.00;;;;;;;;;;5083804;28;20430;-77
2022/03/04 10:38:02;;;;;;;30.90;23.17;;;;;;;;;;5079623;28;20817;-79
2022/03/04 10:40:29;;;;;;;28.43;22.23;;;;;;;;;;5034311;28;20476;-75
2022/03/04 10:45:37;;;;;;;31.73;23.00;;;;;;;;;;5189274;27;20503;-77
2022/03/04 10:48:19;;;;;;;29.33;22.50;;;;;;;;;;5184259;27;20408;-75
2022/03/04 10:50:52;;;;;;;31.00;23.77;;;;;;;;;;5149608;27;20483;-78
2022/03/04 10:53:36;;;;;;;31.83;24.67;;;;;;;;;;5138216;27;20413;-77
2022/03/04 10:56:04;;;;;;;27.13;24.10;;;;;;;;;;5055260;28;20824;-77
2022/03/04 10:58:31;;;;;;;30.77;23.67;;;;;;;;;;5071473;28;20431;-79
2022/03/04 11:00:57;;;;;;;29.13;23.23;;;;;;;;;;4985208;28;20433;-77
2022/03/04 11:03:27;;;;;;;30.47;23.90;;;;;;;;;;4978451;28;20420;-77
2022/03/04 11:05:55;;;;;;;30.83;22.33;;;;;;;;;;4911852;28;20528;-75
2022/03/04 11:10:20;;;;;;;27.33;22.10;;;;;;;;;;5193103;27;20836;-77
2022/03/04 11:12:50;;;;;;;28.00;21.83;;;;;;;;;;5178892;27;20438;-78
2022/03/04 11:15:16;;;;;;;35.30;22.80;;;;;;;;;;5156439;27;20570;-77
2022/03/04 11:17:43;;;;;;;27.90;20.97;;;;;;;;;;5190409;27;20434;-78
2022/03/04 11:20:10;;;;;;;26.00;20.33;;;;;;;;;;5170356;27;20491;-77
2022/03/04 11:22:39;;;;;;;26.70;20.83;;;;;;;;;;5100436;28;20481;-75
2022/03/04 11:25:06;;;;;;;27.40;21.30;;;;;;;;;;4994408;28;20429;-79
2022/03/04 11:27:38;;;;;;;27.87;22.70;;;;;;;;;;4931207;28;20959;-76
2022/03/04 11:30:04;;;;;;;28.30;21.57;;;;;;;;;;4737920;29;20492;-78
2022/03/04 11:34:19;;;;;;;26.67;20.80;;;;;;;;;;5192917;27;20484;-75
2022/03/04 11:36:45;;;;;;;24.77;19.90;;;;;;;;;;5164891;27;20913;-76
2022/03/04 11:39:12;;;;;;;30.23;20.90;;;;;;;;;;5151501;27;20466;-79
2022/03/04 11:41:40;;;;;;;31.00;22.00;;;;;;;;;;5170214;27;20419;-77
2022/03/04 11:44:15;;;;;;;24.20;19.00;;;;;;;;;;5153945;27;20439;-76
2022/03/04 11:46:49;;;;;;;24.37;19.83;;;;;;;;;;5130530;27;20501;-77
2022/03/04 11:49:34;;;;;;;25.67;21.47;;;;;;;;;;5144147;27;20418;-76
2022/03/04 11:52:09;;;;;;;24.10;19.77;;;;;;;;;;5083842;28;20838;-76
2022/03/04 11:57:45;;;;;;;26.50;20.60;;;;;;;;;;5190994;27;20473;-75
2022/03/04 12:00:16;;;;;;;26.30;20.90;;;;;;;;;;5187534;27;20426;-77
2022/03/04 12:02:46;;;;;;;28.33;23.00;;;;;;;;;;5213044;27;20830;-78
2022/03/04 12:05:19;;;;;;;28.87;21.73;;;;;;;;;;5196546;27;20394;-75
2022/03/04 12:07:46;;;;;;;24.00;20.87;;;;;;;;;;5138657;27;20432;-76
2022/03/04 12:10:13;;;;;;;26.10;22.50;;;;;;;;;;5140333;27;20477;-76
2022/03/04 12:12:39;;;;;;;31.37;24.20;;;;;;;;;;5127994;27;23394;-78
2022/03/04 12:15:17;;;;;;;27.17;21.83;;;;;;;;;;5134930;27;20466;-77
2022/03/04 12:18:13;;;;;;;25.70;20.50;;;;;;;;;;5098563;27;20455;-76
2022/03/04 12:23:14;;;;;;;26.23;21.80;;;;;;;;;;5192903;27;20473;-76
2022/03/04 12:25:56;;;;;;;28.37;22.27;;;;;;;;;;5164165;27;20507;-77
2022/03/04 12:28:40;;;;;;;24.87;20.07;;;;;;;;;;5155085;27;20430;-78
2022/03/04 12:31:06;;;;;;;26.73;21.53;;;;;;;;;;5121025;28;20924;-76
2022/03/04 12:33:33;;;;;;;30.30;25.33;;;;;;;;;;5060273;28;20434;-76
2022/03/04 12:36:01;;;;;;;33.23;23.17;;;;;;;;;;5043350;28;20962;-79
2022/03/04 12:38:27;;;;;;;34.03;24.00;;;;;;;;;;5038811;28;20433;-78
2022/03/04 12:40:57;;;;;;;30.53;22.00;;;;;;;;;;5021768;28;20432;-75
2022/03/04 12:43:23;;;;;;;30.53;24.07;;;;;;;;;;5003654;28;20896;-78
2022/03/04 12:47:56;;;;;;;31.40;24.13;;;;;;;;;;5192873;27;20504;-77
2022/03/04 12:50:29;;;;;;;29.63;24.50;;;;;;;;;;5187882;27;20422;-76
2022/03/04 12:52:55;;;;;;;30.67;23.17;;;;;;;;;;5169088;27;20415;-78
2022/03/04 12:55:21;;;;;;;30.87;23.77;;;;;;;;;;5139072;27;20439;-75
2022/03/04 12:57:50;;;;;;;27.17;22.80;;;;;;;;;;5095809;28;20783;-76
2022/03/04 13:00:16;;;;;;;29.07;22.80;;;;;;;;;;5084806;28;20430;-78
2022/03/04 13:02:42;;;;;;;28.00;22.60;;;;;;;;;;5016438;28;20438;-79
2022/03/04 13:05:09;;;;;;;27.90;23.07;;;;;;;;;;4977139;28;20437;-77
2022/03/04 13:07:36;;;;;;;29.80;24.07;;;;;;;;;;4907738;28;21152;-76
2022/03/04 13:12:08;;;;;;;27.37;22.40;;;;;;;;;;5192804;27;20836;-75
2022/03/04 13:14:34;;;;;;;24.87;22.17;;;;;;;;;;5187967;27;20411;-76
2022/03/04 13:17:00;;;;;;;26.73;21.87;;;;;;;;;;5175915;27;20438;-75
2022/03/04 13:19:29;;;;;;;35.70;21.60;;;;;;;;;;5164037;27;20945;-76
2022/03/04 13:22:00;;;;;;;24.90;20.87;;;;;;;;;;5137145;27;20480;-76
2022/03/04 13:24:39;;;;;;;23.90;20.37;;;;;;;;;;5079582;28;20433;-77
2022/03/04 13:27:05;;;;;;;29.77;22.03;;;;;;;;;;5018572;28;20828;-76
2022/03/04 13:29:35;;;;;;;27.00;19.73;;;;;;;;;;5062985;28;20442;-76
2022/03/04 13:32:10;;;;;;;31.83;22.20;;;;;;;;;;4942888;28;20497;-76
2022/03/04 13:36:51;;;;;;;25.17;21.20;;;;;;;;;;5179208;27;20493;-75
2022/03/04 13:39:25;;;;;;;24.20;19.40;;;;;;;;;;5165178;27;20401;-74
2022/03/04 13:42:10;;;;;;;28.30;20.50;;;;;;;;;;5154025;27;20419;-75
2022/03/04 13:44:36;;;;;;;25.57;18.40;;;;;;;;;;5137595;27;20431;-75
2022/03/04 13:47:07;;;;;;;23.53;19.20;;;;;;;;;;5133275;27;20452;-78
2022/03/04 13:49:43;;;;;;;23.77;19.80;;;;;;;;;;5045088;28;20423;-80
2022/03/04 13:52:09;;;;;;;28.67;19.07;;;;;;;;;;5008488;28;20470;-77
2022/03/04 13:54:48;;;;;;;22.10;18.67;;;;;;;;;;4934512;28;20426;-75
2022/03/04 13:57:33;;;;;;;20.77;16.43;;;;;;;;;;4771766;29;20431;-77
2022/03/04 14:01:20;;;;;;;19.97;16.27;;;;;;;;;;5193255;27;20484;-80
2022/03/04 14:03:47;;;;;;;22.70;16.27;;;;;;;;;;5169657;27;20509;-79
2022/03/04 14:06:14;;;;;;;20.97;16.47;;;;;;;;;;5132504;27;20950;-78
2022/03/04 14:08:40;;;;;;;20.60;15.80;;;;;;;;;;5105268;27;20530;-77
2022/03/04 14:11:08;;;;;;;19.20;15.97;;;;;;;;;;5134479;27;20425;-78
2022/03/04 14:13:35;;;;;;;18.97;15.67;;;;;;;;;;5091098;28;20518;-79
2022/03/04 14:16:01;;;;;;;21.50;16.10;;;;;;;;;;5066371;28;20466;-76
2022/03/04 14:18:29;;;;;;;22.87;16.97;;;;;;;;;;5026202;28;20478;-79
2022/03/04 14:20:57;;;;;;;22.67;17.00;;;;;;;;;;4834940;28;20490;-77
2022/03/04 14:24:55;;;;;;;20.17;15.80;;;;;;;;;;5189578;27;20492;-79
2022/03/04 14:27:21;;;;;;;18.03;13.80;;;;;;;;;;5169258;27;20450;-76
2022/03/04 14:29:47;;;;;;;21.13;14.43;;;;;;;;;;5170711;27;20509;-76
2022/03/04 14:32:13;;;;;;;16.47;13.77;;;;;;;;;;5170399;27;20401;-77
2022/03/04 14:34:39;;;;;;;18.50;14.13;;;;;;;;;;5061116;28;20443;-78
2022/03/04 14:37:05;;;;;;;16.00;14.03;;;;;;;;;;4987597;28;20465;-77
2022/03/04 14:39:31;;;;;;;17.37;13.57;;;;;;;;;;4980925;28;20434;-77
2022/03/04 14:41:57;;;;;;;18.73;14.67;;;;;;;;;;4925635;28;20753;-76
2022/03/04 14:44:23;;;;;;;16.07;14.03;;;;;;;;;;4836416;29;20455;-78
2022/03/04 14:48:50;;;;;;;14.47;11.53;;;;;;;;;;5192581;27;20484;-77
2022/03/04 14:51:16;;;;;;;15.60;12.53;;;;;;;;;;5187782;27;20426;-76
2022/03/04 14:53:42;;;;;;;12.53;9.90;;;;;;;;;;5191862;27;20465;-78
2022/03/04 14:56:08;;;;;;;12.70;10.57;;;;;;;;;;5150310;27;20455;-77
2022/03/04 14:58:34;;;;;;;14.80;9.50;;;;;;;;;;5081484;28;20899;-76
2022/03/04 15:01:00;;;;;;;13.17;11.13;;;;;;;;;;5044998;28;20417;-79
2022/03/04 15:03:26;;;;;;;14.30;10.97;;;;;;;;;;4994181;28;20424;-77
2022/03/04 15:05:52;;;;;;;17.80;11.33;;;;;;;;;;4931206;28;20532;-77
2022/03/04 15:08:20;;;;;;;13.07;9.93;;;;;;;;;;4894611;29;20889;-76
2022/03/04 15:13:17;;;;;;;11.73;9.70;;;;;;;;;;5192833;27;20310;-77
2022/03/04 15:15:44;;;;;;;11.90;9.93;;;;;;;;;;5166126;27;20454;-77
2022/03/04 15:18:10;;;;;;;11.40;9.63;;;;;;;;;;5171032;27;20484;-77
2022/03/04 15:20:36;;;;;;;12.17;9.60;;;;;;;;;;5170009;27;20781;-77
2022/03/04 15:23:03;;;;;;;14.30;10.50;;;;;;;;;;5169355;27;20430;-76
2022/03/04 15:25:29;;;;;;;18.87;15.00;;;;;;;;;;5084226;27;20537;-76
2022/03/04 15:27:56;;;;;;;14.63;12.17;;;;;;;;;;5043718;28;21206;-76
2022/03/04 15:30:23;;;;;;;14.73;12.03;;;;;;;;;;5035707;28;20782;-75
2022/03/04 15:32:49;;;;;;;16.70;12.93;;;;;;;;;;4948590;28;20484;-75
2022/03/04 15:37:12;;;;;;;15.53;12.37;;;;;;;;;;5175077;27;20498;-76
2022/03/04 15:39:39;;;;;;;15.50;12.50;;;;;;;;;;5187557;27;20429;-76
2022/03/04 15:42:05;;;;;;;17.00;12.47;;;;;;;;;;5213391;27;20413;-78
2022/03/04 15:44:32;;;;;;;14.20;12.50;;;;;;;;;;5212326;27;20409;-79
2022/03/04 15:46:58;;;;;;;15.20;12.60;;;;;;;;;;5202911;27;20500;-78
2022/03/04 15:49:25;;;;;;;16.20;12.67;;;;;;;;;;5180749;27;20802;-77
2022/03/04 15:51:55;;;;;;;16.33;13.00;;;;;;;;;;5133163;27;22679;-76